Time;durP1;ratioP1;P1;durP2;ratioP2;P2;SDS_P1;SDS_P2;PMS_P1;PMS_P2;Temp;Humidity;BMP_temperature;BMP_pressure;BME280_temperature;BME280_humidity;BME280_pressure;Samples;Min_cycle;Max_cycle;Signal;HPM_P1;HPM_P2
2022/12/22 03:27:40;;;;;;;43.42;26.73;;;;;;;0.34;83.82;99559.24;1755312;80;21573;-70
2022/12/22 03:30:08;;;;;;;45.83;28.87;;;;;;;0.32;83.90;99560.30;1794989;78;21017;-67
2022/12/22 03:32:35;;;;;;;49.30;29.70;;;;;;;0.36;83.83;99563.06;1805363;78;21014;-69
2022/12/22 03:35:01;;;;;;;33.85;24.87;;;;;;;0.37;83.78;99559.52;1809996;79;21013;-69
2022/12/22 03:37:28;;;;;;;41.55;26.15;;;;;;;0.40;83.67;99550.14;1815620;79;21411;-68
2022/12/22 03:39:54;;;;;;;39.60;25.17;;;;;;;0.36;83.82;99556.05;1817370;79;21022;-68
2022/12/22 03:47:54;;;;;;;39.73;25.62;;;;;;;0.39;83.67;99553.23;1770912;80;21070;-65
2022/12/22 03:50:21;;;;;;;38.10;23.62;;;;;;;0.41;83.57;99554.44;1771596;79;21249;-66
2022/12/22 03:52:47;;;;;;;42.05;25.65;;;;;;;0.40;83.59;99544.91;1804108;79;21686;-65
2022/12/22 03:55:14;;;;;;;39.42;24.43;;;;;;;0.39;83.53;99542.78;1786551;79;21539;-67
2022/12/22 03:57:40;;;;;;;41.75;26.52;;;;;;;0.38;83.72;99541.57;1763482;80;20988;-65
2022/12/22 04:00:08;;;;;;;38.58;25.82;;;;;;;0.41;83.68;99536.14;1816864;79;21759;-68
2022/12/22 04:02:37;;;;;;;42.30;25.27;;;;;;;0.39;83.73;99535.42;1800019;79;21753;-67
2022/12/22 04:05:06;;;;;;;41.65;28.00;;;;;;;0.40;83.79;99529.23;1802037;79;21100;-69
2022/12/22 04:07:32;;;;;;;37.50;24.95;;;;;;;0.40;83.90;99525.31;1816701;79;21478;-67
2022/12/22 04:12:53;;;;;;;43.78;25.85;;;;;;;0.38;83.85;99516.74;1786853;79;21303;-67
2022/12/22 04:15:26;;;;;;;42.45;27.62;;;;;;;0.39;83.97;99523.17;1775413;79;21139;-68
2022/12/22 04:17:53;;;;;;;44.13;27.17;;;;;;;0.43;83.86;99519.05;1817126;79;20995;-66
2022/12/22 04:20:20;;;;;;;43.28;26.68;;;;;;;0.39;83.89;99523.17;1809226;79;21589;-68
2022/12/22 04:22:47;;;;;;;43.00;27.05;;;;;;;0.37;83.98;99531.59;1809573;79;21099;-66
2022/12/22 04:25:13;;;;;;;44.00;25.75;;;;;;;0.41;84.04;99517.84;1788082;79;21076;-66
2022/12/22 04:27:40;;;;;;;37.63;24.80;;;;;;;0.39;84.09;99527.09;1803656;79;21043;-66
2022/12/22 04:30:08;;;;;;;45.63;26.70;;;;;;;0.39;84.15;99532.32;1796520;79;21011;-69
2022/12/22 04:32:34;;;;;;;45.43;27.55;;;;;;;0.45;83.99;99525.83;1817720;79;21022;-67
2022/12/22 04:35:01;;;;;;;37.10;25.52;;;;;;;0.41;84.08;99519.16;1817371;79;21024;-71
2022/12/22 04:37:28;;;;;;;41.60;28.87;;;;;;;0.38;84.30;99524.11;1803011;79;21528;-65
2022/12/22 04:39:54;;;;;;;48.52;36.48;;;;;;;0.40;84.17;99521.39;1795156;79;21201;-62
2022/12/22 04:42:21;;;;;;;51.88;31.62;;;;;;;0.43;84.17;99530.81;1803780;79;20995;-65
2022/12/22 04:44:48;;;;;;;44.67;27.05;;;;;;;0.40;84.31;99521.39;1813927;79;21050;-66
2022/12/22 04:47:16;;;;;;;50.92;36.55;;;;;;;0.46;84.06;99527.97;1780687;79;21550;-64
2022/12/22 04:49:42;;;;;;;48.50;35.48;;;;;;;0.41;84.15;99529.61;1798079;77;21445;-65
2022/12/22 04:52:09;;;;;;;45.35;31.62;;;;;;;0.35;84.42;99524.34;1778892;80;21504;-67
2022/12/22 04:54:35;;;;;;;45.78;28.75;;;;;;;0.38;84.46;99525.41;1765446;80;21525;-67
2022/12/22 04:57:02;;;;;;;42.60;27.42;;;;;;;0.33;84.61;99515.78;1768916;80;21037;-67
2022/12/22 04:59:28;;;;;;;41.53;27.58;;;;;;;0.42;84.47;99511.66;1817357;79;20991;-67
2022/12/22 05:01:55;;;;;;;37.98;25.90;;;;;;;0.46;84.22;99505.75;1817372;79;21057;-67
2022/12/22 05:04:21;;;;;;;38.13;25.12;;;;;;;0.41;84.33;99506.09;1793299;79;21214;-67
2022/12/22 05:06:48;;;;;;;40.63;26.75;;;;;;;0.41;84.38;99507.84;1817177;79;21002;-67
2022/12/22 05:09:14;;;;;;;41.70;26.85;;;;;;;0.44;84.31;99507.16;1777129;79;20983;-68
2022/12/22 05:11:41;;;;;;;42.33;27.73;;;;;;;0.46;84.26;99512.28;1744284;81;21016;-68
2022/12/22 05:14:07;;;;;;;42.50;26.02;;;;;;;0.49;84.09;99522.05;1777520;80;21024;-67
2022/12/22 05:16:33;;;;;;;40.78;25.82;;;;;;;0.47;84.19;99533.09;1770140;80;21184;-68
2022/12/22 05:19:00;;;;;;;40.65;26.87;;;;;;;0.49;83.95;99532.98;1734423;81;21119;-68
2022/12/22 05:21:27;;;;;;;39.92;27.10;;;;;;;0.48;83.95;99532.12;1760276;80;21023;-69
2022/12/22 05:23:53;;;;;;;39.95;24.07;;;;;;;0.44;84.12;99522.84;1764250;80;21079;-69
2022/12/22 05:26:20;;;;;;;44.38;27.65;;;;;;;0.42;83.95;99519.50;1750474;80;21019;-70
2022/12/22 05:28:46;;;;;;;38.50;26.23;;;;;;;0.50;83.78;99517.20;1735970;81;21269;-69
2022/12/22 05:31:19;;;;;;;40.35;26.30;;;;;;;0.50;83.78;99528.97;1776128;79;21507;-69
2022/12/22 05:33:46;;;;;;;46.80;28.67;;;;;;;0.51;83.75;99531.09;1781202;80;21542;-68
2022/12/22 05:36:13;;;;;;;43.20;27.45;;;;;;;0.54;83.27;99539.56;1772238;80;21000;-69
2022/12/22 05:38:39;;;;;;;51.53;31.33;;;;;;;0.57;83.29;99551.09;1761405;80;21042;-65
2022/12/22 05:41:06;;;;;;;41.80;27.55;;;;;;;0.59;83.36;99550.50;1761054;79;21303;-67
2022/12/22 05:43:33;;;;;;;37.33;27.15;;;;;;;0.56;83.36;99536.36;1765893;80;21472;-68
2022/12/22 05:46:05;;;;;;;39.33;26.07;;;;;;;0.62;83.17;99545.55;1768401;80;21100;-69
2022/12/22 05:48:33;;;;;;;49.18;35.00;;;;;;;0.59;83.23;99540.53;1761707;80;21011;-66
2022/12/22 05:50:59;;;;;;;45.05;31.48;;;;;;;0.63;82.87;99527.59;1769326;80;21102;-66
2022/12/22 05:53:27;;;;;;;43.08;28.10;;;;;;;0.66;82.83;99527.39;1758047;80;21139;-67
2022/12/22 05:55:53;;;;;;;43.55;27.62;;;;;;;0.72;82.75;99530.03;1769139;80;21045;-67
2022/12/22 05:58:20;;;;;;;42.80;28.27;;;;;;;0.82;82.38;99539.36;1752852;80;21094;-68
2022/12/22 06:00:46;;;;;;;39.95;26.00;;;;;;;0.80;82.39;99540.77;1760153;80;21071;-68
2022/12/22 06:03:12;;;;;;;45.60;29.52;;;;;;;0.76;82.40;99535.41;1762157;80;21019;-69
2022/12/22 06:05:39;;;;;;;41.00;28.50;;;;;;;0.80;82.26;99532.92;1765786;80;21322;-69
2022/12/22 06:08:07;;;;;;;42.78;29.50;;;;;;;0.81;82.26;99543.73;1780565;79;21059;-67
2022/12/22 06:10:34;;;;;;;45.95;28.23;;;;;;;0.80;82.31;99537.33;1792377;77;21065;-70
2022/12/22 06:13:00;;;;;;;43.10;28.12;;;;;;;0.84;82.24;99536.16;1788529;77;21009;-70
2022/12/22 06:15:27;;;;;;;47.15;28.35;;;;;;;0.82;82.10;99540.19;1802179;77;21077;-69
2022/12/22 06:17:53;;;;;;;40.70;25.62;;;;;;;0.84;82.00;99542.22;1789579;79;22216;-70
2022/12/22 06:20:20;;;;;;;42.20;27.77;;;;;;;0.82;82.09;99548.03;1795643;79;20991;-69
2022/12/22 06:22:46;;;;;;;45.92;27.87;;;;;;;0.86;81.97;99551.27;1805181;77;21045;-71
2022/12/22 06:25:13;;;;;;;43.80;27.15;;;;;;;0.83;82.03;99552.33;1788804;77;21006;-69
2022/12/22 06:27:39;;;;;;;37.70;25.23;;;;;;;0.87;82.11;99562.07;1815345;77;22185;-69
2022/12/22 06:30:08;;;;;;;44.13;28.30;;;;;;;0.94;81.99;99558.08;1805783;77;21240;-68
2022/12/22 06:32:37;;;;;;;45.92;29.20;;;;;;;0.89;82.15;99567.58;1809003;79;21134;-70
2022/12/22 06:35:05;;;;;;;48.15;31.82;;;;;;;0.83;82.40;99569.33;1798800;77;21520;-71
2022/12/22 06:37:32;;;;;;;51.77;31.25;;;;;;;0.85;82.46;99573.98;1807482;77;20982;-69
2022/12/22 06:39:58;;;;;;;52.30;33.78;;;;;;;0.78;82.52;99572.25;1785696;78;21108;-71
2022/12/22 06:45:10;;;;;;;49.77;33.63;;;;;;;0.76;82.63;99589.02;1783783;78;21564;-71
2022/12/22 06:47:36;;;;;;;50.67;32.45;;;;;;;0.71;82.81;99588.02;1788906;78;21523;-69
2022/12/22 06:50:06;;;;;;;48.15;31.45;;;;;;;0.71;82.83;99588.48;1800117;79;21054;-72
2022/12/22 06:52:32;;;;;;;50.83;32.15;;;;;;;0.71;82.76;99592.41;1778567;79;21069;-72
2022/12/22 06:55:01;;;;;;;54.38;34.88;;;;;;;0.69;82.87;99589.91;1768293;79;21091;-71
2022/12/22 06:57:28;;;;;;;49.23;31.17;;;;;;;0.73;82.93;99583.51;1771272;79;21148;-70
2022/12/22 06:59:54;;;;;;;48.13;32.25;;;;;;;0.71;82.82;99590.63;1767994;79;21052;-70
2022/12/22 07:02:21;;;;;;;49.67;31.10;;;;;;;0.76;82.58;99586.40;1769581;79;21029;-72
2022/12/22 07:04:47;;;;;;;43.33;26.90;;;;;;;0.77;82.49;99584.98;1772754;79;21115;-70
2022/12/22 07:07:14;;;;;;;45.98;30.40;;;;;;;0.80;82.24;99571.33;1782909;79;21158;-72
2022/12/22 07:09:41;;;;;;;48.73;31.30;;;;;;;0.89;81.96;99580.66;1793439;79;21025;-72
2022/12/22 07:12:07;;;;;;;60.05;38.88;;;;;;;0.89;81.87;99577.18;1787028;79;21135;-71
2022/12/22 07:14:34;;;;;;;58.02;41.18;;;;;;;0.87;81.81;99573.39;1776496;79;21020;-72
2022/12/22 07:17:01;;;;;;;54.77;38.17;;;;;;;0.90;81.78;99571.84;1774094;79;21037;-72
2022/12/22 07:19:27;;;;;;;56.58;40.65;;;;;;;0.93;81.63;99583.41;1786093;79;21059;-71
2022/12/22 07:21:54;;;;;;;59.25;42.27;;;;;;;0.95;81.42;99578.90;1795614;79;21523;-70
2022/12/22 07:24:24;;;;;;;59.80;37.65;;;;;;;0.96;81.47;99592.33;1780461;79;21080;-70
2022/12/22 07:26:49;;;;;;;51.92;34.10;;;;;;;0.96;81.43;99585.78;1773125;79;21017;-70
2022/12/22 07:29:17;;;;;;;54.40;34.80;;;;;;;0.98;81.40;99577.38;1771799;78;21544;-72
2022/12/22 07:31:44;;;;;;;49.05;32.80;;;;;;;0.97;81.45;99581.41;1777811;79;21605;-73
2022/12/22 07:34:10;;;;;;;54.70;35.33;;;;;;;1.03;81.29;99570.98;1787677;78;21076;-71
2022/12/22 07:36:37;;;;;;;52.67;34.55;;;;;;;1.04;81.18;99583.09;1773424;79;21120;-73
2022/12/22 07:39:04;;;;;;;55.92;35.92;;;;;;;1.07;80.94;99590.25;1772717;78;21080;-73
2022/12/22 07:44:16;;;;;;;58.15;36.08;;;;;;;1.10;80.58;99591.80;1798910;79;21132;-72
2022/12/22 07:46:42;;;;;;;59.53;39.15;;;;;;;1.17;80.34;99603.02;1775752;79;21024;-71
2022/12/22 07:51:57;;;;;;;55.73;34.80;;;;;;;1.22;80.10;99601.39;1783490;79;21089;-71
2022/12/22 07:54:23;;;;;;;53.85;35.95;;;;;;;1.25;79.76;99602.47;1770298;79;21092;-70
2022/12/22 07:56:50;;;;;;;55.90;34.83;;;;;;;1.32;79.50;99602.38;1768799;79;21300;-75
2022/12/22 07:59:16;;;;;;;56.63;35.38;;;;;;;1.35;79.07;99612.64;1786810;79;21099;-73
2022/12/22 08:01:44;;;;;;;51.77;34.03;;;;;;;1.43;78.67;99604.67;1768764;79;21076;-74
2022/12/22 08:04:12;;;;;;;52.80;33.35;;;;;;;1.44;78.40;99613.73;1778398;79;21022;-73
2022/12/22 08:06:38;;;;;;;54.48;33.78;;;;;;;1.49;78.15;99608.17;1798064;79;22056;-72
2022/12/22 08:09:06;;;;;;;53.50;34.00;;;;;;;1.50;78.10;99599.36;1800448;79;21771;-73
2022/12/22 08:11:33;;;;;;;58.63;35.78;;;;;;;1.54;77.62;99606.03;1753313;81;21037;-72
2022/12/22 08:13:59;;;;;;;52.80;33.75;;;;;;;1.56;77.74;99605.44;1759241;80;21022;-73
2022/12/22 08:16:26;;;;;;;56.28;37.85;;;;;;;1.62;77.34;99594.51;1774736;80;21098;-74
2022/12/22 08:18:52;;;;;;;56.37;34.65;;;;;;;1.64;77.42;99589.16;1785436;80;21055;-72
2022/12/22 08:21:18;;;;;;;44.55;31.87;;;;;;;1.71;77.12;99591.69;1787864;80;21278;-71
2022/12/22 08:26:38;;;;;;;48.63;33.40;;;;;;;1.87;76.60;99574.34;1797773;79;22135;-74
2022/12/22 08:29:15;;;;;;;49.75;31.73;;;;;;;1.91;76.50;99579.70;1748244;81;21659;-71
2022/12/22 08:31:42;;;;;;;56.50;36.80;;;;;;;1.95;76.16;99567.58;1744966;81;21108;-74
2022/12/22 08:34:12;;;;;;;52.50;33.85;;;;;;;2.00;76.31;99563.28;1737234;81;21598;-73
2022/12/22 08:36:42;;;;;;;48.50;33.18;;;;;;;2.07;75.63;99559.73;1735921;81;21057;-72
2022/12/22 08:39:09;;;;;;;56.08;37.03;;;;;;;2.10;75.72;99566.85;1740102;81;21114;-72
2022/12/22 08:41:50;;;;;;;49.38;34.27;;;;;;;2.10;75.32;99561.61;1758545;81;20989;-71
2022/12/22 08:44:24;;;;;;;48.55;32.88;;;;;;;2.10;75.21;99562.09;1736082;81;21212;-70
2022/12/22 08:46:51;;;;;;;49.85;34.98;;;;;;;2.07;75.60;99551.87;1722437;81;21052;-71
2022/12/22 08:49:18;;;;;;;53.85;37.25;;;;;;;2.07;75.55;99547.45;1729651;81;21049;-74
2022/12/22 08:51:44;;;;;;;54.20;34.27;;;;;;;2.09;75.59;99548.65;1765694;81;21010;-73
2022/12/22 08:54:11;;;;;;;55.90;35.48;;;;;;;2.12;75.51;99547.91;1744641;81;21068;-72
2022/12/22 08:56:37;;;;;;;55.43;36.73;;;;;;;2.18;75.25;99544.47;1757245;81;21060;-73
2022/12/22 08:59:06;;;;;;;53.50;35.63;;;;;;;2.18;75.38;99557.57;1744423;81;21049;-72
2022/12/22 09:01:35;;;;;;;49.83;32.90;;;;;;;2.22;75.32;99553.75;1751368;81;21049;-68
2022/12/22 09:04:05;;;;;;;46.90;33.55;;;;;;;2.23;74.62;99548.89;1741299;80;21013;-71
2022/12/22 09:06:33;;;;;;;51.13;35.80;;;;;;;2.21;74.91;99551.63;1714234;81;21102;-70
2022/12/22 09:09:02;;;;;;;52.67;35.50;;;;;;;2.21;75.04;99553.41;1765657;81;21160;-69
2022/12/22 09:11:28;;;;;;;44.40;33.45;;;;;;;2.19;75.19;99549.59;1744505;80;21060;-72
2022/12/22 09:13:57;;;;;;;50.45;34.35;;;;;;;2.20;75.32;99546.00;1752757;79;21040;-71
2022/12/22 09:16:26;;;;;;;52.13;35.20;;;;;;;2.20;75.32;99555.66;1738709;81;21013;-72
2022/12/22 09:18:54;;;;;;;46.92;32.42;;;;;;;2.22;75.44;99564.23;1742168;81;21079;-74
2022/12/22 09:21:22;;;;;;;50.95;34.48;;;;;;;2.22;75.49;99565.09;1760018;81;21717;-75
2022/12/22 09:23:48;;;;;;;49.90;33.25;;;;;;;2.25;75.46;99554.36;1768242;79;21173;-75
2022/12/22 09:26:18;;;;;;;47.25;33.10;;;;;;;2.24;75.51;99557.95;1774629;79;21012;-77
2022/12/22 09:28:45;;;;;;;45.73;32.53;;;;;;;2.24;75.80;99550.09;1773606;79;21024;-76
2022/12/22 09:31:11;;;;;;;48.87;32.70;;;;;;;2.24;75.80;99550.09;1774385;79;21523;-73
2022/12/22 09:33:38;;;;;;;50.70;32.17;;;;;;;2.24;76.01;99551.39;1775126;79;21095;-74
2022/12/22 09:36:06;;;;;;;53.52;34.33;;;;;;;2.25;75.96;99550.91;1789363;79;21004;-74
2022/12/22 09:38:36;;;;;;;51.30;34.88;;;;;;;2.27;76.20;99545.06;1792520;79;21096;-74
2022/12/22 09:41:11;;;;;;;46.33;31.45;;;;;;;2.29;76.34;99545.78;1766109;79;21042;-77
2022/12/22 09:43:38;;;;;;;41.65;29.55;;;;;;;2.31;76.45;99547.80;1765618;79;21005;-77
2022/12/22 09:46:07;;;;;;;42.83;27.85;;;;;;;2.49;76.28;99539.81;1789287;79;21182;-76
2022/12/22 09:48:35;;;;;;;49.38;32.83;;;;;;;2.59;75.90;99537.75;1775958;79;21063;-76
2022/12/22 09:51:03;;;;;;;46.98;33.30;;;;;;;2.61;75.95;99544.56;1773508;79;21033;-76
2022/12/22 09:53:31;;;;;;;51.63;33.75;;;;;;;2.63;75.85;99543.13;1768962;79;21068;-76
2022/12/22 09:55:58;;;;;;;55.05;36.40;;;;;;;2.65;75.69;99547.78;1765943;79;21008;-75
2022/12/22 09:58:30;;;;;;;56.58;37.53;;;;;;;2.65;75.69;99547.78;1765822;80;21253;-74
2022/12/22 10:01:25;;;;;;;49.80;34.08;;;;;;;2.67;75.50;99556.36;1771924;79;21031;-74
2022/12/22 10:04:03;;;;;;;55.88;34.78;;;;;;;2.66;75.53;99541.56;1775056;79;21020;-73
2022/12/22 10:07:00;;;;;;;53.45;36.98;;;;;;;2.80;75.17;99550.48;1767336;79;21036;-71
2022/12/22 10:09:29;;;;;;;53.52;35.23;;;;;;;2.74;75.03;99552.27;1775201;79;21044;-74
2022/12/22 10:11:59;;;;;;;59.00;39.73;;;;;;;2.65;75.25;99545.16;1765674;79;21241;-71
2022/12/22 10:14:41;;;;;;;54.23;35.90;;;;;;;2.56;75.71;99546.70;1766439;79;21056;-74
2022/12/22 10:17:31;;;;;;;52.38;35.52;;;;;;;2.51;76.13;99545.77;1774597;79;21049;-74
2022/12/22 10:20:24;;;;;;;55.45;37.67;;;;;;;2.62;76.11;99550.14;1769824;79;20964;-75
2022/12/22 10:22:54;;;;;;;49.77;35.45;;;;;;;2.61;76.18;99536.69;1777756;79;21084;-73
2022/12/22 10:25:33;;;;;;;52.08;36.42;;;;;;;2.58;76.49;99537.41;1775567;79;21063;-74
2022/12/22 10:28:05;;;;;;;58.30;38.65;;;;;;;2.56;76.68;99550.64;1802783;78;21072;-72
2022/12/22 10:30:35;;;;;;;57.48;35.78;;;;;;;2.52;76.75;99534.80;1765614;80;21001;-72
2022/12/22 10:33:14;;;;;;;55.50;34.38;;;;;;;2.58;77.01;99535.61;1769747;80;21131;-73
2022/12/22 10:35:53;;;;;;;55.38;35.98;;;;;;;2.67;77.15;99534.06;1737541;80;21120;-73
2022/12/22 10:38:31;;;;;;;50.48;34.05;;;;;;;2.59;77.55;99527.26;1793272;78;21294;-73
2022/12/22 10:41:20;;;;;;;57.93;36.13;;;;;;;2.54;77.71;99517.97;1765753;80;20999;-74
2022/12/22 10:43:52;;;;;;;50.12;32.65;;;;;;;2.51;77.99;99517.38;1777822;80;21076;-73
2022/12/22 10:46:43;;;;;;;47.05;30.57;;;;;;;2.60;77.92;99507.96;1763934;80;21049;-75
2022/12/22 10:49:20;;;;;;;51.73;33.20;;;;;;;2.66;77.72;99506.98;1793515;78;20966;-73
2022/12/22 10:52:18;;;;;;;58.33;35.25;;;;;;;2.61;77.81;99506.53;1783238;80;21058;-74
2022/12/22 10:54:44;;;;;;;56.18;34.55;;;;;;;2.58;78.06;99501.52;1793569;80;21290;-75
2022/12/22 10:57:20;;;;;;;49.18;32.00;;;;;;;2.56;78.02;99500.33;1801550;78;21060;-77
2022/12/22 10:59:56;;;;;;;44.25;30.55;;;;;;;2.67;78.15;99503.90;1757141;78;20990;-74
2022/12/22 11:02:28;;;;;;;43.08;31.07;;;;;;;2.67;78.15;99503.90;1768821;79;20982;-72
2022/12/22 11:05:07;;;;;;;41.55;30.00;;;;;;;2.55;79.28;99482.94;1769970;80;22066;-74
2022/12/22 11:07:37;;;;;;;46.10;31.93;;;;;;;2.55;79.28;99482.94;1787245;80;20942;-74
2022/12/22 11:10:29;;;;;;;46.23;31.23;;;;;;;2.59;79.79;99480.91;1798463;78;20985;-73
2022/12/22 11:13:47;;;;;;;46.70;33.63;;;;;;;2.74;79.91;99481.44;1772125;80;21008;-75
2022/12/22 11:16:23;;;;;;;42.65;31.02;;;;;;;2.74;80.26;99482.75;1791764;77;21060;-73
2022/12/22 11:19:23;;;;;;;40.00;29.60;;;;;;;2.64;81.64;99477.42;1781889;79;21739;-76
2022/12/22 11:22:07;;;;;;;44.95;30.85;;;;;;;2.66;81.95;99477.30;1794456;79;21025;-75
2022/12/22 11:24:59;;;;;;;;;;;;;;;2.68;82.30;99484.08;1801195;79;20997;-76
2022/12/22 11:28:25;;;;;;;48.80;32.13;;;;;;;2.60;82.14;99485.18;1785912;79;20162;-74
2022/12/22 11:31:18;;;;;;;48.15;32.95;;;;;;;2.49;82.30;99482.13;1764102;81;21049;-74
2022/12/22 11:34:02;;;;;;;49.05;33.45;;;;;;;2.57;82.56;99492.00;1759759;81;21206;-74
2022/12/22 11:36:38;;;;;;;;;;;;;;;2.55;82.49;99488.19;1790151;78;21123;-73
2022/12/22 11:39:15;;;;;;;44.20;29.63;;;;;;;2.52;82.90;99477.10;1770233;80;20195;-73
2022/12/22 11:42:05;;;;;;;46.88;29.55;;;;;;;2.47;83.24;99487.97;1761378;80;21036;-72
2022/12/22 11:44:52;;;;;;;51.98;33.40;;;;;;;2.55;83.58;99484.25;1781400;80;21024;-74
2022/12/22 11:47:55;;;;;;;50.17;35.03;;;;;;;2.57;83.43;99484.13;1811625;78;21098;-73
2022/12/22 11:50:41;;;;;;;60.78;37.98;;;;;;;2.50;83.68;99485.09;1778301;80;21001;-74
2022/12/22 11:53:34;;;;;;;49.75;32.28;;;;;;;2.56;83.79;99485.90;1774392;80;21568;-75
2022/12/22 11:56:24;;;;;;;51.73;34.08;;;;;;;2.56;83.79;99485.90;1791170;80;21492;-72
2022/12/22 11:59:38;;;;;;;54.42;33.85;;;;;;;2.54;83.84;99498.30;1787181;80;21001;-74
2022/12/22 12:02:29;;;;;;;49.42;33.85;;;;;;;2.52;83.84;99498.91;1783629;80;21848;-73
2022/12/22 12:05:20;;;;;;;48.92;32.58;;;;;;;2.50;83.81;99492.95;1769128;79;21021;-74
2022/12/22 12:08:23;;;;;;;48.50;31.87;;;;;;;2.58;83.40;99498.89;1797773;77;21067;-74
2022/12/22 12:11:17;;;;;;;49.20;34.95;;;;;;;2.61;82.54;99489.48;1784233;80;21030;-74
2022/12/22 12:13:55;;;;;;;48.45;34.95;;;;;;;2.61;82.54;99489.48;1792694;80;21036;-74
2022/12/22 12:16:28;;;;;;;50.17;36.03;;;;;;;2.55;82.54;99492.61;1784087;80;21106;-71
2022/12/22 12:19:35;;;;;;;50.92;33.90;;;;;;;2.60;82.43;99491.73;1807101;79;21077;-72
2022/12/22 12:22:04;;;;;;;46.60;34.73;;;;;;;2.71;81.92;99500.06;1805652;79;21003;-74
2022/12/22 12:25:00;;;;;;;57.60;37.85;;;;;;;2.64;81.90;99505.45;1781000;78;21045;-73
2022/12/22 12:28:03;;;;;;;54.60;37.20;;;;;;;2.60;81.94;99503.54;1785544;78;21088;-73
2022/12/22 12:30:35;;;;;;;50.80;35.28;;;;;;;2.69;81.48;99496.73;1723941;83;21824;-74
2022/12/22 12:33:16;;;;;;;50.65;34.53;;;;;;;2.69;81.48;99496.73;1708951;83;21104;-76
2022/12/22 12:35:51;;;;;;;53.52;34.23;;;;;;;2.64;81.36;99502.33;1733518;80;21024;-74
2022/12/22 12:38:55;;;;;;;54.10;34.15;;;;;;;2.60;81.27;99504.02;1788546;80;21028;-75
2022/12/22 12:41:49;;;;;;;52.58;36.33;;;;;;;2.56;81.35;99511.30;1790081;80;20989;-76
2022/12/22 12:44:18;;;;;;;50.58;33.83;;;;;;;2.66;80.81;99506.15;1751046;80;21210;-74
2022/12/22 12:46:53;;;;;;;53.42;36.00;;;;;;;2.62;80.67;99509.49;1766367;80;21068;-73
2022/12/22 12:49:40;;;;;;;55.05;38.15;;;;;;;2.56;80.66;99499.02;1782375;80;21763;-74
2022/12/22 12:52:11;;;;;;;48.80;33.95;;;;;;;2.52;80.75;99494.97;1764262;80;21032;-74
2022/12/22 12:54:42;;;;;;;47.88;35.38;;;;;;;2.52;80.84;99492.35;1773291;80;21013;-74
2022/12/22 12:57:30;;;;;;;49.85;34.58;;;;;;;2.66;80.55;99490.41;1771785;80;21339;-72
2022/12/22 12:59:58;;;;;;;49.10;33.85;;;;;;;2.67;80.46;99485.53;1776105;80;21000;-75
2022/12/22 13:02:34;;;;;;;50.12;35.28;;;;;;;2.63;80.71;99486.26;1778468;80;20989;-75
2022/12/22 13:05:11;;;;;;;53.92;35.05;;;;;;;2.63;80.71;99486.26;1785253;80;21072;-75
2022/12/22 13:08:13;;;;;;;49.30;34.15;;;;;;;2.63;80.86;99481.50;1763790;80;21047;-74
2022/12/22 13:10:48;;;;;;;58.58;37.60;;;;;;;2.75;80.78;99484.43;1783472;80;21113;-81
2022/12/22 13:13:26;;;;;;;61.98;38.20;;;;;;;2.72;80.90;99468.47;1764243;80;21028;-76
2022/12/22 13:16:05;;;;;;;49.20;35.35;;;;;;;2.67;81.13;99466.69;1771719;80;21072;-72
2022/12/22 13:18:43;;;;;;;55.80;34.88;;;;;;;2.64;81.52;99469.55;1793110;78;20986;-76
2022/12/22 13:21:24;;;;;;;59.30;37.80;;;;;;;2.70;81.59;99466.91;1770419;80;20996;-74
2022/12/22 13:23:59;;;;;;;57.03;37.65;;;;;;;2.81;81.91;99468.19;1812545;79;21078;-76
2022/12/22 13:26:34;;;;;;;54.77;36.50;;;;;;;2.77;82.34;99473.33;1818874;78;21060;-79
2022/12/22 13:29:39;;;;;;;53.65;37.03;;;;;;;2.74;82.58;99469.18;1762791;81;21496;-80
2022/12/22 13:32:22;;;;;;;54.98;35.10;;;;;;;2.71;82.91;99469.91;1790349;80;21620;-79
2022/12/22 13:35:31;;;;;;;53.70;38.35;;;;;;;2.75;82.80;99470.83;1782151;80;21053;-81
2022/12/22 13:37:57;;;;;;;61.48;38.42;;;;;;;2.84;81.81;99473.66;1762305;80;21212;-76
2022/12/22 13:40:41;;;;;;;48.45;34.75;;;;;;;2.84;81.81;99473.66;1761339;80;21040;-74
2022/12/22 13:43:15;;;;;;;56.73;39.80;;;;;;;2.79;82.33;99468.80;1761690;80;21083;-75
2022/12/22 13:45:53;;;;;;;56.35;38.13;;;;;;;2.71;82.93;99474.66;1794143;79;20977;-76
2022/12/22 13:48:43;;;;;;;54.60;38.05;;;;;;;2.71;82.93;99466.80;1798614;78;21040;-76
2022/12/22 13:51:34;;;;;;;58.73;39.38;;;;;;;2.78;82.61;99476.78;1802652;78;21033;-75
2022/12/22 13:54:22;;;;;;;58.25;38.92;;;;;;;2.74;83.07;99481.44;1764779;80;21075;-73
2022/12/22 13:56:52;;;;;;;62.67;40.92;;;;;;;2.65;83.51;99475.65;1809765;78;21790;-75
2022/12/22 13:59:40;;;;;;;61.50;39.18;;;;;;;2.59;83.50;99486.61;1812520;79;21069;-75
2022/12/22 14:02:13;;;;;;;56.77;37.70;;;;;;;2.62;83.39;99490.31;1820403;78;20987;-75
2022/12/22 14:04:43;;;;;;;55.23;39.03;;;;;;;2.70;83.10;99498.38;1815388;78;21204;-76
2022/12/22 14:07:17;;;;;;;59.53;39.55;;;;;;;2.64;83.06;99477.91;1819222;78;20983;-74
2022/12/22 14:09:49;;;;;;;57.88;37.93;;;;;;;2.58;82.93;99492.83;1764625;80;20949;-76
2022/12/22 14:12:26;;;;;;;57.45;37.03;;;;;;;2.51;82.85;99476.73;1766268;80;21035;-75
2022/12/22 14:14:54;;;;;;;56.85;35.95;;;;;;;2.49;82.76;99486.06;1825667;77;21055;-78
2022/12/22 14:17:29;;;;;;;53.92;37.58;;;;;;;2.56;82.42;99485.90;1813885;77;21768;-78
2022/12/22 14:19:58;;;;;;;61.15;40.15;;;;;;;2.49;82.38;99493.07;1785612;77;21008;-77
2022/12/22 14:22:28;;;;;;;58.02;37.67;;;;;;;2.49;82.38;99493.07;1780608;79;21127;-80
2022/12/22 14:24:58;;;;;;;58.00;38.25;;;;;;;2.46;82.31;99502.51;1791691;77;20997;-79
2022/12/22 14:27:49;;;;;;;54.10;37.33;;;;;;;2.47;82.26;99491.91;1779892;80;21033;-76
2022/12/22 14:30:23;;;;;;;55.00;39.38;;;;;;;2.58;81.69;99492.34;1795604;80;21241;-76
2022/12/22 14:32:54;;;;;;;;;;;;;;;2.52;81.61;99497.59;1781685;80;21065;-76
2022/12/22 14:35:26;;;;;;;57.55;36.93;;;;;;;2.46;81.71;99499.40;1781459;79;20207;-77
2022/12/22 14:38:15;;;;;;;55.80;36.63;;;;;;;2.39;81.76;99500.84;1776082;79;21016;-76
2022/12/22 14:40:42;;;;;;;50.10;35.08;;;;;;;2.35;81.82;99500.73;1780666;79;21032;-77
2022/12/22 14:43:22;;;;;;;50.33;35.20;;;;;;;2.45;81.51;99499.52;1736447;79;21922;-74
2022/12/22 14:45:50;;;;;;;52.33;34.10;;;;;;;2.46;81.20;99495.95;1777031;79;21311;-76
2022/12/22 14:48:33;;;;;;;47.13;35.05;;;;;;;2.34;81.30;99482.86;1777458;79;21038;-74
2022/12/22 14:50:59;;;;;;;51.87;36.87;;;;;;;2.34;81.30;99482.86;1779270;79;21060;-76
2022/12/22 14:53:55;;;;;;;50.88;33.33;;;;;;;2.29;81.40;99486.31;1774823;79;21001;-76
2022/12/22 14:56:22;;;;;;;54.90;33.75;;;;;;;2.33;81.43;99495.59;1775518;79;21142;-76
2022/12/22 14:58:49;;;;;;;49.85;35.30;;;;;;;2.45;81.02;99490.34;1780248;79;21481;-75
2022/12/22 15:01:26;;;;;;;54.30;37.00;;;;;;;2.42;80.87;99493.22;1775868;79;21083;-75
2022/12/22 15:04:17;;;;;;;59.03;36.63;;;;;;;2.34;81.11;99491.21;1784522;79;21020;-74
2022/12/22 15:06:47;;;;;;;53.38;33.28;;;;;;;2.26;81.47;99487.89;1787310;79;21044;-75
2022/12/22 15:09:19;;;;;;;53.90;35.48;;;;;;;2.30;81.62;99483.23;1792459;79;21139;-75
2022/12/22 15:11:50;;;;;;;61.87;37.87;;;;;;;2.38;81.42;99490.46;1757258;81;21064;-75
2022/12/22 15:14:25;;;;;;;53.15;35.55;;;;;;;2.31;81.51;99489.64;1743476;79;21123;-75
2022/12/22 15:16:56;;;;;;;56.77;36.63;;;;;;;2.23;81.75;99495.16;1772302;79;21087;-75
2022/12/22 15:19:23;;;;;;;55.70;34.23;;;;;;;2.23;81.75;99495.16;1778012;79;21013;-75
2022/12/22 15:21:50;;;;;;;46.80;32.25;;;;;;;2.30;81.76;99493.23;1751955;81;21819;-74
2022/12/22 15:24:17;;;;;;;50.03;33.25;;;;;;;2.37;81.49;99487.02;1782648;77;20989;-78
2022/12/22 15:26:44;;;;;;;49.38;32.83;;;;;;;2.35;81.53;99478.45;1756513;79;21083;-78
2022/12/22 15:29:11;;;;;;;53.05;35.98;;;;;;;2.30;81.56;99476.69;1794661;77;21036;-77
2022/12/22 15:31:38;;;;;;;52.73;34.50;;;;;;;2.27;81.52;99471.19;1765138;80;21552;-78
2022/12/22 15:34:24;;;;;;;51.77;35.28;;;;;;;2.31;81.51;99466.54;1769883;79;21264;-72
2022/12/22 15:36:51;;;;;;;52.75;35.15;;;;;;;2.43;81.10;99481.28;1791862;79;20993;-74
2022/12/22 15:39:18;;;;;;;49.30;34.23;;;;;;;2.43;80.92;99476.03;1771833;79;21110;-74
2022/12/22 15:41:45;;;;;;;53.70;36.77;;;;;;;2.33;81.08;99470.69;1775962;78;21004;-73